createdAt,value
2022-08-03T00:01:28.510Z,100605.94
2022-08-03T00:03:55.248Z,100607.94
2022-08-03T00:06:21.780Z,100597.72
2022-08-03T00:08:48.358Z,100600.34
2022-08-03T00:11:14.877Z,100604.97
2022-08-03T00:13:41.439Z,100599.00
2022-08-03T00:16:08.486Z,100605.44
2022-08-03T00:18:35.037Z,100606.47
2022-08-03T00:21:03.894Z,100588.06
2022-08-03T00:23:51.468Z,100598.13
2022-08-03T00:26:17.051Z,100598.31
2022-08-03T00:28:43.651Z,100591.91
2022-08-03T00:31:13.457Z,100591.28
2022-08-03T00:33:58.348Z,100594.22
2022-08-03T00:36:27.554Z,100589.25
2022-08-03T00:38:54.401Z,100583.50
2022-08-03T00:41:21.151Z,100589.06
2022-08-03T00:43:47.779Z,100582.94
2022-08-03T00:46:17.729Z,100581.50
2022-08-03T00:48:49.507Z,100585.03
2022-08-03T00:51:16.359Z,100589.81
2022-08-03T00:53:43.528Z,100576.78
2022-08-03T00:56:14.072Z,100585.66
2022-08-03T00:58:40.756Z,100584.00
2022-08-03T01:01:07.467Z,100575.28
2022-08-03T01:03:34.427Z,100574.63
2022-08-03T01:06:12.828Z,100569.22
2022-08-03T01:08:56.835Z,100567.09
2022-08-03T01:11:59.946Z,100566.44
2022-08-03T01:14:35.997Z,100565.84
2022-08-03T01:17:13.060Z,100572.19
2022-08-03T01:19:45.660Z,100573.84
2022-08-03T01:22:26.397Z,100567.09
2022-08-03T01:25:24.080Z,100569.72
2022-08-03T01:28:19.879Z,100562.78
2022-08-03T01:30:47.254Z,100566.84
2022-08-03T01:33:24.182Z,100571.41
2022-08-03T01:35:58.919Z,100568.69
2022-08-03T01:38:30.863Z,100565.19
2022-08-03T01:40:58.439Z,100569.34
2022-08-03T01:44:26.898Z,100568.06
2022-08-03T01:46:18.916Z,100567.25
2022-08-03T01:48:47.387Z,100567.47
2022-08-03T01:51:18.061Z,100568.53
2022-08-03T01:53:45.398Z,100564.13
2022-08-03T01:56:13.920Z,100572.59
2022-08-03T01:58:42.071Z,100569.03
2022-08-03T02:01:10.020Z,100569.25
2022-08-03T02:04:00.431Z,100559.63
2022-08-03T02:07:00.215Z,100568.31
2022-08-03T02:09:17.563Z,100560.19
2022-08-03T02:11:46.626Z,100557.41
2022-08-03T02:14:14.595Z,100563.75
2022-08-03T02:16:43.227Z,100565.03
2022-08-03T02:19:11.503Z,100561.91
2022-08-03T02:21:56.849Z,100559.91
2022-08-03T02:24:25.569Z,100561.19
2022-08-03T02:26:55.742Z,100556.84
2022-08-03T02:29:38.799Z,100561.09
2022-08-03T02:32:12.640Z,100557.91
2022-08-03T02:34:41.986Z,100551.56
2022-08-03T02:37:10.319Z,100555.22
2022-08-03T02:39:39.914Z,100557.56
2022-08-03T02:42:09.546Z,100551.56
2022-08-03T02:44:40.298Z,100555.91
2022-08-03T02:47:10.793Z,100553.28
2022-08-03T02:49:51.595Z,100549.94
2022-08-03T02:52:25.334Z,100547.44
2022-08-03T02:54:54.959Z,100551.13
2022-08-03T02:57:23.553Z,100549.72
2022-08-03T02:59:52.125Z,100544.38
2022-08-03T03:02:20.111Z,100551.94
2022-08-03T03:05:52.602Z,100548.44
2022-08-03T03:07:51.440Z,100544.03
2022-08-03T03:10:22.594Z,100546.41
2022-08-03T03:12:52.663Z,100548.06
2022-08-03T03:15:19.410Z,100549.63
2022-08-03T03:17:48.199Z,100552.41
2022-08-03T03:20:15.625Z,100548.50
2022-08-03T03:22:59.587Z,100546.47
2022-08-03T03:25:26.677Z,100548.38
2022-08-03T03:27:54.336Z,100546.81
2022-08-03T03:30:21.447Z,100554.19
2022-08-03T03:32:48.432Z,100556.31
2022-08-03T03:35:16.764Z,100556.34
2022-08-03T03:37:43.333Z,100556.13
2022-08-03T03:40:10.599Z,100563.72
2022-08-03T03:42:38.426Z,100551.84
2022-08-03T03:45:08.849Z,100556.09
2022-08-03T03:47:35.803Z,100557.16
2022-08-03T03:50:04.573Z,100560.34
2022-08-03T03:52:32.252Z,100550.34
2022-08-03T03:55:01.281Z,100548.72
2022-08-03T03:57:29.461Z,100550.06
2022-08-03T03:59:56.569Z,100557.22
2022-08-03T04:02:23.122Z,100552.50
2022-08-03T04:05:08.432Z,100557.56
2022-08-03T04:08:10.805Z,100555.50
2022-08-03T04:11:00.384Z,100567.34
2022-08-03T04:13:35.220Z,100552.66
2022-08-03T04:16:03.091Z,100553.31
2022-08-03T04:18:32.489Z,100559.16
2022-08-03T04:21:03.918Z,100553.47
2022-08-03T04:23:34.795Z,100550.53
2022-08-03T04:26:03.549Z,100560.97
2022-08-03T04:28:32.393Z,100563.25
2022-08-03T04:31:01.332Z,100567.91
2022-08-03T04:33:31.413Z,100557.25
2022-08-03T04:36:02.895Z,100565.97
2022-08-03T04:38:33.190Z,100561.25
2022-08-03T04:41:01.457Z,100563.03
2022-08-03T04:43:29.005Z,100562.31
2022-08-03T04:45:56.452Z,100559.47
2022-08-03T04:48:23.043Z,100566.03
2022-08-03T04:50:49.811Z,100568.56
2022-08-03T04:53:17.834Z,100562.22
2022-08-03T04:55:44.749Z,100565.47
2022-08-03T04:58:12.704Z,100566.69
2022-08-03T05:00:39.685Z,100564.69
2022-08-03T05:03:23.898Z,100565.28
2022-08-03T05:05:52.969Z,100567.75
2022-08-03T05:08:20.370Z,100571.69
2022-08-03T05:10:54.748Z,100577.09
2022-08-03T05:13:21.447Z,100569.53
2022-08-03T05:15:49.200Z,100569.72
2022-08-03T05:18:15.736Z,100571.09
2022-08-03T05:20:42.354Z,100575.78
2022-08-03T05:23:08.896Z,100576.97
2022-08-03T05:25:35.485Z,100587.75
2022-08-03T05:28:02.071Z,100585.13
2022-08-03T05:30:33.873Z,100591.94
2022-08-03T05:33:02.947Z,100606.06
2022-08-03T05:36:00.608Z,100616.22
2022-08-03T05:38:23.693Z,100625.66
2022-08-03T05:40:57.536Z,100625.78
2022-08-03T05:43:41.875Z,100628.66
2022-08-03T05:46:12.157Z,100626.94
2022-08-03T05:48:39.926Z,100629.72
2022-08-03T05:51:07.750Z,100631.88
2022-08-03T05:53:34.550Z,100634.19
2022-08-03T05:56:13.283Z,100635.53
2022-08-03T05:58:52.376Z,100629.72
2022-08-03T06:01:21.701Z,100633.63
2022-08-03T06:03:49.666Z,100645.88
2022-08-03T06:06:16.874Z,100634.47
2022-08-03T06:08:44.698Z,100641.53
2022-08-03T06:11:12.369Z,100649.75
2022-08-03T06:13:38.955Z,100654.72
2022-08-03T06:16:05.916Z,100645.41
2022-08-03T06:18:32.452Z,100652.09
2022-08-03T06:21:00.238Z,100654.13
2022-08-03T06:23:55.102Z,100650.28
2022-08-03T06:26:24.016Z,100652.06
2022-08-03T06:28:52.997Z,100650.88
2022-08-03T06:31:23.740Z,100653.00
2022-08-03T06:34:33.595Z,100651.94
2022-08-03T06:36:37.798Z,100659.34
2022-08-03T06:39:06.257Z,100657.06
2022-08-03T06:41:38.108Z,100649.38
2022-08-03T06:44:11.871Z,100661.41
2022-08-03T06:46:38.408Z,100659.34
2022-08-03T06:49:05.513Z,100656.84
2022-08-03T06:52:04.086Z,100663.44
2022-08-03T06:54:19.046Z,100660.69
2022-08-03T06:56:45.569Z,100664.06
2022-08-03T07:00:10.769Z,100661.88
2022-08-03T07:01:58.777Z,100663.16
2022-08-03T07:04:25.379Z,100674.28
2022-08-03T07:06:52.354Z,100669.50
2022-08-03T07:09:18.949Z,100664.34
2022-08-03T07:11:45.458Z,100668.84
2022-08-03T07:14:11.997Z,100675.44
2022-08-03T07:16:38.528Z,100667.19
2022-08-03T07:19:05.408Z,100666.75
2022-08-03T07:21:31.939Z,100670.09
2022-08-03T07:23:58.461Z,100672.91
2022-08-03T07:26:25.006Z,100678.81
2022-08-03T07:28:51.533Z,100676.16
2022-08-03T07:31:18.075Z,100675.59
2022-08-03T07:33:44.611Z,100681.63
2022-08-03T07:36:11.165Z,100672.16
2022-08-03T07:38:37.742Z,100680.84
2022-08-03T07:41:04.362Z,100682.63
2022-08-03T07:43:30.915Z,100686.41
2022-08-03T07:45:57.494Z,100676.06
2022-08-03T07:48:24.021Z,100675.09
2022-08-03T07:50:50.742Z,100684.72
2022-08-03T07:53:17.314Z,100680.19
2022-08-03T07:55:43.846Z,100675.84
2022-08-03T07:58:12.460Z,100669.97
2022-08-03T08:00:39.418Z,100674.09
2022-08-03T08:03:06.119Z,100666.75
2022-08-03T08:05:32.988Z,100674.03
2022-08-03T08:08:00.656Z,100679.16
2022-08-03T08:10:27.886Z,100669.06
2022-08-03T08:12:55.108Z,100667.56
2022-08-03T08:15:21.866Z,100666.72
2022-08-03T08:17:51.942Z,100662.00
2022-08-03T08:20:27.794Z,100671.09
2022-08-03T08:23:02.717Z,100661.06
2022-08-03T08:25:31.315Z,100660.06
2022-08-03T08:28:29.546Z,100661.97
2022-08-03T08:30:48.767Z,100663.44
2022-08-03T08:33:22.536Z,100656.19
2022-08-03T08:35:51.197Z,100653.91
2022-08-03T08:38:17.762Z,100655.63
2022-08-03T08:40:44.287Z,100648.56
2022-08-03T08:43:10.796Z,100660.38
2022-08-03T08:45:37.609Z,100660.59
2022-08-03T08:48:08.334Z,100656.44
2022-08-03T08:50:37.457Z,100653.38
2022-08-03T08:53:09.833Z,100646.19
2022-08-03T08:55:58.545Z,100644.09
2022-08-03T08:58:31.203Z,100645.88
2022-08-03T09:00:57.821Z,100647.03
2022-08-03T09:03:30.262Z,100647.47
2022-08-03T09:05:59.630Z,100652.91
2022-08-03T09:08:26.465Z,100646.06
2022-08-03T09:10:53.003Z,100649.81
2022-08-03T09:13:19.676Z,100639.00
2022-08-03T09:16:00.878Z,100638.91
2022-08-03T09:18:32.851Z,100639.56
2022-08-03T09:21:34.501Z,100633.53
2022-08-03T09:24:05.392Z,100635.50
2022-08-03T09:26:35.393Z,100640.97
2022-08-03T09:29:11.168Z,100635.88
2022-08-03T09:31:44.414Z,100635.03
2022-08-03T09:34:14.525Z,100634.72
2022-08-03T09:36:46.509Z,100635.84
2022-08-03T09:39:16.913Z,100642.41
2022-08-03T09:41:47.199Z,100636.66
2022-08-03T09:44:24.143Z,100630.91
2022-08-03T09:46:56.198Z,100636.88
2022-08-03T09:49:23.296Z,100632.25
2022-08-03T09:52:32.116Z,100628.50
2022-08-03T09:54:37.007Z,100624.53
2022-08-03T09:57:03.705Z,100619.50
2022-08-03T09:59:32.205Z,100624.47
2022-08-03T10:02:00.583Z,100623.81
2022-08-03T10:04:28.318Z,100622.72
2022-08-03T10:07:04.269Z,100622.03
2022-08-03T10:09:30.902Z,100621.56
2022-08-03T10:11:57.786Z,100623.72
2022-08-03T10:14:26.425Z,100623.56
2022-08-03T10:16:52.963Z,100624.53
2022-08-03T10:19:19.608Z,100616.81
2022-08-03T10:21:56.163Z,100626.50
2022-08-03T10:24:28.542Z,100621.56
2022-08-03T10:27:07.231Z,100606.00
2022-08-03T10:29:38.826Z,100603.00
2022-08-03T10:32:25.918Z,100600.88
2022-08-03T10:35:00.211Z,100607.19
2022-08-03T10:37:32.101Z,100606.44
2022-08-03T10:40:00.653Z,100606.81
2022-08-03T10:42:31.235Z,100596.94
2022-08-03T10:45:04.980Z,100614.53
2022-08-03T10:47:32.986Z,100604.38
2022-08-03T10:50:00.465Z,100610.28
2022-08-03T10:52:32.927Z,100607.94
2022-08-03T10:55:20.665Z,100605.03
2022-08-03T10:57:49.718Z,100609.53
2022-08-03T11:00:21.494Z,100597.16
2022-08-03T11:03:10.909Z,100595.50
2022-08-03T11:05:40.581Z,100596.75
2022-08-03T11:08:25.319Z,100592.19
2022-08-03T11:10:54.793Z,100596.78
2022-08-03T11:13:24.903Z,100599.19
2022-08-03T11:15:54.085Z,100589.72
2022-08-03T11:18:29.676Z,100600.06
2022-08-03T11:20:58.662Z,100595.84
2022-08-03T11:24:05.253Z,100591.94
2022-08-03T11:26:29.440Z,100582.47
2022-08-03T11:29:29.018Z,100583.38
2022-08-03T11:31:55.606Z,100584.66
2022-08-03T11:34:24.327Z,100592.56
2022-08-03T11:37:24.501Z,100589.75
2022-08-03T11:39:54.618Z,100592.63
2022-08-03T11:42:25.081Z,100588.41
2022-08-03T11:44:56.666Z,100598.97
2022-08-03T11:47:26.800Z,100583.19
2022-08-03T11:49:59.136Z,100588.28
2022-08-03T11:52:28.767Z,100586.31
2022-08-03T11:54:57.018Z,100588.91
2022-08-03T11:59:16.665Z,100585.75
2022-08-03T12:00:26.048Z,100586.94
2022-08-03T12:02:56.687Z,100585.19
2022-08-03T12:05:52.309Z,100584.50
2022-08-03T12:08:33.508Z,100585.63
2022-08-03T12:11:05.718Z,100588.28
2022-08-03T12:14:45.748Z,100577.94
2022-08-03T12:16:31.804Z,100575.81
2022-08-03T12:19:06.568Z,100572.34
2022-08-03T12:21:34.181Z,100567.91
2022-08-03T12:24:04.833Z,100571.03
2022-08-03T12:26:44.247Z,100563.25
2022-08-03T12:29:22.970Z,100564.53
2022-08-03T12:31:49.593Z,100554.06
2022-08-03T12:34:16.413Z,100566.16
2022-08-03T12:36:53.746Z,100562.28
2022-08-03T12:39:25.133Z,100561.94
2022-08-03T12:41:55.477Z,100558.66
2022-08-03T12:44:36.142Z,100557.53
2022-08-03T12:47:04.447Z,100562.00
2022-08-03T12:49:52.045Z,100556.75
2022-08-03T12:52:20.353Z,100564.13
2022-08-03T12:54:57.979Z,100552.72
2022-08-03T12:57:25.079Z,100542.81
2022-08-03T12:59:55.770Z,100552.31
2022-08-03T13:02:24.589Z,100548.50
2022-08-03T13:04:53.399Z,100555.28
2022-08-03T13:07:20.593Z,100553.34
2022-08-03T13:09:55.125Z,100559.72
2022-08-03T13:12:25.036Z,100554.47
2022-08-03T13:14:55.545Z,100547.75
2022-08-03T13:17:22.899Z,100553.34
2022-08-03T13:19:50.246Z,100550.38
2022-08-03T13:22:18.392Z,100549.19
2022-08-03T13:24:47.389Z,100556.09
2022-08-03T13:28:11.075Z,100546.28
2022-08-03T13:30:01.146Z,100556.22
2022-08-03T13:32:27.870Z,100548.25
2022-08-03T13:34:54.452Z,100553.31
2022-08-03T13:37:21.698Z,100548.22
2022-08-03T13:39:59.246Z,100544.06
2022-08-03T13:42:32.219Z,100543.19
2022-08-03T13:44:59.493Z,100545.94
2022-08-03T13:47:26.550Z,100539.50
2022-08-03T13:49:59.373Z,100540.41
2022-08-03T13:52:34.164Z,100532.16
2022-08-03T13:55:03.588Z,100531.13
2022-08-03T13:58:02.211Z,100534.81
2022-08-03T14:00:27.680Z,100534.09
2022-08-03T14:03:02.940Z,100534.69
2022-08-03T14:05:31.982Z,100531.84
2022-08-03T14:08:04.594Z,100528.41
2022-08-03T14:10:33.362Z,100515.94
2022-08-03T14:13:00.405Z,100516.09
2022-08-03T14:15:28.472Z,100510.31
2022-08-03T14:17:59.067Z,100513.34
2022-08-03T14:20:36.775Z,100514.25
2022-08-03T14:23:06.709Z,100508.69
2022-08-03T14:25:44.464Z,100510.03
2022-08-03T14:28:18.843Z,100517.25
2022-08-03T14:30:45.650Z,100509.06
2022-08-03T14:33:12.179Z,100518.06
2022-08-03T14:35:39.159Z,100509.19
2022-08-03T14:38:06.372Z,100508.19
2022-08-03T14:40:32.954Z,100498.19
2022-08-03T14:42:59.488Z,100505.59
2022-08-03T14:45:26.071Z,100505.72
2022-08-03T14:50:33.158Z,100514.31
2022-08-03T14:50:45.488Z,100511.31
2022-08-03T14:53:17.463Z,100498.06
2022-08-03T14:55:49.666Z,100511.78
2022-08-03T14:58:21.975Z,100505.81
2022-08-03T15:00:50.422Z,100502.81
2022-08-03T15:03:21.379Z,100505.94
2022-08-03T15:05:47.969Z,100492.50
2022-08-03T15:08:14.575Z,100497.34
2022-08-03T15:10:44.849Z,100509.88
2022-08-03T15:13:13.392Z,100495.91
2022-08-03T15:15:40.344Z,100488.88
2022-08-03T15:18:07.014Z,100486.91
2022-08-03T15:20:43.872Z,100482.84
2022-08-03T15:23:10.867Z,100481.53
2022-08-03T15:26:28.551Z,100486.53
2022-08-03T15:28:24.116Z,100481.69
2022-08-03T15:30:53.657Z,100476.16
2022-08-03T15:33:20.377Z,100480.31
2022-08-03T15:35:47.969Z,100481.31
2022-08-03T15:38:15.202Z,100476.25
2022-08-03T15:40:42.384Z,100476.72
2022-08-03T15:43:08.993Z,100472.78
2022-08-03T15:45:36.879Z,100472.31
2022-08-03T15:48:06.549Z,100475.75
2022-08-03T15:50:33.101Z,100479.50
2022-08-03T15:52:59.615Z,100486.09
2022-08-03T15:55:26.249Z,100476.41
2022-08-03T15:59:03.876Z,100479.88
2022-08-03T16:00:40.518Z,100477.69
2022-08-03T16:03:07.156Z,100466.03
2022-08-03T16:05:33.882Z,100467.28
2022-08-03T16:08:03.635Z,100468.81
2022-08-03T16:10:31.886Z,100468.44
2022-08-03T16:12:59.780Z,100474.22
2022-08-03T16:15:26.327Z,100476.75
2022-08-03T16:17:53.299Z,100474.09
2022-08-03T16:20:29.710Z,100469.91
2022-08-03T16:23:10.346Z,100462.75
2022-08-03T16:25:41.803Z,100476.97
2022-08-03T16:28:13.950Z,100468.63
2022-08-03T16:30:43.561Z,100472.56
2022-08-03T16:33:11.453Z,100465.91
2022-08-03T16:35:43.697Z,100470.44
2022-08-03T16:38:13.080Z,100473.44
2022-08-03T16:40:42.101Z,100470.59
2022-08-03T16:43:17.913Z,100464.53
2022-08-03T16:45:48.990Z,100473.53
2022-08-03T16:48:16.425Z,100476.00
2022-08-03T16:50:44.102Z,100469.34
2022-08-03T16:53:16.693Z,100467.66
2022-08-03T16:55:53.960Z,100473.63
2022-08-03T16:58:41.725Z,100477.09
2022-08-03T17:01:21.913Z,100474.63
2022-08-03T17:04:02.070Z,100475.56
2022-08-03T17:06:35.865Z,100468.63
2022-08-03T17:09:10.476Z,100471.50
2022-08-03T17:11:43.973Z,100465.91
2022-08-03T17:14:15.002Z,100462.97
2022-08-03T17:16:52.414Z,100473.50
2022-08-03T17:19:23.303Z,100470.09
2022-08-03T17:21:56.944Z,100468.53
2022-08-03T17:24:32.618Z,100466.91
2022-08-03T17:27:08.913Z,100467.19
2022-08-03T17:29:39.217Z,100464.72
2022-08-03T17:32:18.128Z,100467.50
2022-08-03T17:34:49.803Z,100462.09
2022-08-03T17:37:27.147Z,100467.44
2022-08-03T17:40:04.279Z,100467.44
2022-08-03T17:42:33.243Z,100468.53
2022-08-03T17:45:03.753Z,100473.13
2022-08-03T17:47:42.880Z,100468.19
2022-08-03T17:50:24.755Z,100469.72
2022-08-03T17:53:07.496Z,100468.66
2022-08-03T17:55:57.325Z,100476.47
2022-08-03T17:58:42.059Z,100475.22
2022-08-03T18:02:05.699Z,100476.16
2022-08-03T18:04:30.019Z,100476.97
2022-08-03T18:06:59.106Z,100485.25
2022-08-03T18:10:06.067Z,100473.44
2022-08-03T18:12:27.169Z,100476.56
2022-08-03T18:15:01.302Z,100480.72
2022-08-03T18:17:55.655Z,100485.28
2022-08-03T18:20:34.437Z,100487.16
2022-08-03T18:23:07.600Z,100485.44
2022-08-03T18:25:45.632Z,100483.44
2022-08-03T18:28:18.774Z,100479.19
2022-08-03T18:30:53.716Z,100482.56
2022-08-03T18:34:16.177Z,100484.81
2022-08-03T18:36:21.711Z,100478.88
2022-08-03T18:38:58.535Z,100478.47
2022-08-03T18:41:33.714Z,100480.03
2022-08-03T18:44:07.811Z,100476.16
2022-08-03T18:47:15.958Z,100480.56
2022-08-03T18:50:02.527Z,100470.78
2022-08-03T18:52:52.735Z,100474.09
2022-08-03T18:55:35.419Z,100472.34
2022-08-03T18:58:17.795Z,100470.47
2022-08-03T19:01:15.233Z,100472.69
2022-08-03T19:04:03.905Z,100478.88
2022-08-03T19:06:31.628Z,100482.81
2022-08-03T19:09:09.538Z,100486.84
2022-08-03T19:12:14.559Z,100492.63
2022-08-03T19:14:42.463Z,100495.41
2022-08-03T19:17:11.230Z,100490.16
2022-08-03T19:19:44.569Z,100493.94
2022-08-03T19:22:15.965Z,100496.03
2022-08-03T19:24:45.872Z,100493.69
2022-08-03T19:27:13.540Z,100495.22
2022-08-03T19:29:58.797Z,100493.16
2022-08-03T19:32:31.723Z,100499.06
2022-08-03T19:35:00.131Z,100490.16
2022-08-03T19:37:38.399Z,100490.47
2022-08-03T19:40:10.776Z,100493.97
2022-08-03T19:43:03.404Z,100491.03
2022-08-03T19:45:52.664Z,100485.84
2022-08-03T19:48:28.610Z,100485.94
2022-08-03T19:51:02.335Z,100487.09
2022-08-03T19:53:45.041Z,100487.13
2022-08-03T19:56:14.213Z,100487.75
2022-08-03T19:58:43.213Z,100485.88
2022-08-03T20:01:21.588Z,100482.28
2022-08-03T20:03:49.930Z,100480.09
2022-08-03T20:06:21.492Z,100485.09
2022-08-03T20:08:51.554Z,100475.44
2022-08-03T20:11:19.903Z,100483.19
2022-08-03T20:13:49.031Z,100479.84
2022-08-03T20:16:15.923Z,100477.34
2022-08-03T20:18:42.686Z,100479.53
2022-08-03T20:21:15.350Z,100478.47
2022-08-03T20:24:23.438Z,100480.91
2022-08-03T20:26:53.527Z,100477.88
2022-08-03T20:30:05.273Z,100486.91
2022-08-03T20:32:15.316Z,100486.56
2022-08-03T20:34:42.475Z,100489.84
2022-08-03T20:37:12.057Z,100492.88
2022-08-03T20:39:38.717Z,100490.59
2022-08-03T20:42:07.256Z,100493.06
2022-08-03T20:44:36.613Z,100496.88
2022-08-03T20:47:10.191Z,100496.03
2022-08-03T20:49:45.943Z,100494.91
2022-08-03T20:52:18.386Z,100491.28
2022-08-03T20:54:47.790Z,100495.09
2022-08-03T20:57:16.366Z,100496.41
2022-08-03T20:59:50.839Z,100502.72
2022-08-03T21:02:30.038Z,100499.63
2022-08-03T21:05:02.890Z,100492.94
2022-08-03T21:08:05.813Z,100486.84
2022-08-03T21:10:29.902Z,100485.19
2022-08-03T21:13:15.480Z,100490.88
2022-08-03T21:16:12.646Z,100485.25
2022-08-03T21:18:38.005Z,100484.63
2022-08-03T21:21:06.215Z,100479.06
2022-08-03T21:23:48.874Z,100488.63
2022-08-03T21:26:18.413Z,100487.25
2022-08-03T21:28:47.317Z,100490.47
2022-08-03T21:31:19.830Z,100494.16
2022-08-03T21:34:05.188Z,100490.41
2022-08-03T21:36:34.152Z,100487.88
2022-08-03T21:39:02.389Z,100492.84
2022-08-03T21:41:31.884Z,100492.28
2022-08-03T21:43:59.498Z,100491.00
2022-08-03T21:46:29.532Z,100490.88
2022-08-03T21:50:07.502Z,100499.69
2022-08-03T21:51:52.385Z,100501.91
2022-08-03T21:54:22.456Z,100501.47
2022-08-03T21:56:51.013Z,100501.41
2022-08-03T21:59:19.714Z,100500.97
2022-08-03T22:01:48.955Z,100496.00
2022-08-03T22:04:50.315Z,100499.53
2022-08-03T22:07:07.869Z,100502.94
2022-08-03T22:09:36.013Z,100510.03
2022-08-03T22:12:03.046Z,100503.97
2022-08-03T22:14:32.388Z,100501.91
2022-08-03T22:16:59.999Z,100505.16
2022-08-03T22:19:26.563Z,100503.41
2022-08-03T22:21:54.319Z,100506.66
2022-08-03T22:24:23.902Z,100511.44
2022-08-03T22:27:09.900Z,100506.78
2022-08-03T22:29:39.636Z,100507.09
2022-08-03T22:32:06.782Z,100510.00
2022-08-03T22:34:33.534Z,100507.72
2022-08-03T22:37:02.885Z,100513.88
2022-08-03T22:39:30.093Z,100518.88
2022-08-03T22:41:57.943Z,100517.81
2022-08-03T22:44:25.470Z,100519.59
2022-08-03T22:46:52.128Z,100526.81
2022-08-03T22:49:19.471Z,100527.06
2022-08-03T22:51:47.094Z,100524.13
2022-08-03T22:54:14.353Z,100531.97
2022-08-03T22:56:41.836Z,100528.97
2022-08-03T22:59:40.390Z,100528.88
2022-08-03T23:02:20.021Z,100527.38
2022-08-03T23:04:51.572Z,100531.53
2022-08-03T23:07:39.408Z,100528.81
2022-08-03T23:10:12.050Z,100524.91
2022-08-03T23:12:40.778Z,100525.16
2022-08-03T23:15:10.401Z,100523.91
2022-08-03T23:17:58.556Z,100524.19
2022-08-03T23:20:26.852Z,100520.38
2022-08-03T23:22:57.742Z,100523.00
2022-08-03T23:25:25.285Z,100521.88
2022-08-03T23:28:05.376Z,100523.94
2022-08-03T23:30:34.696Z,100530.09
2022-08-03T23:33:02.861Z,100524.34
2022-08-03T23:36:29.668Z,100533.13
2022-08-03T23:38:36.751Z,100515.53
2022-08-03T23:41:04.775Z,100529.69
2022-08-03T23:43:45.135Z,100521.19
2022-08-03T23:46:21.756Z,100517.81
2022-08-03T23:48:48.341Z,100520.00
2022-08-03T23:51:50.894Z,100515.25
2022-08-03T23:54:32.051Z,100522.78
2022-08-03T23:57:09.216Z,100512.84
2022-08-03T23:59:46.761Z,100512.19
